sensor_id;sensor_type;location;lat;lon;timestamp;P1;durP1;ratioP1;P2;durP2;ratioP2
51862;SDS011;37900;52.996;6.278;2024-01-30T00:01:58;6.88;;;2.75;;
51862;SDS011;37900;52.996;6.278;2024-01-30T00:04:24;2.83;;;2.50;;
51862;SDS011;37900;52.996;6.278;2024-01-30T00:06:50;3.65;;;2.88;;
51862;SDS011;37900;52.996;6.278;2024-01-30T00:09:18;2.97;;;2.63;;
51862;SDS011;37900;52.996;6.278;2024-01-30T00:11:43;3.72;;;2.63;;
51862;SDS011;37900;52.996;6.278;2024-01-30T00:14:09;3.30;;;2.50;;
51862;SDS011;37900;52.996;6.278;2024-01-30T00:16:35;3.30;;;2.60;;
51862;SDS011;37900;52.996;6.278;2024-01-30T00:19:00;2.90;;;2.40;;
51862;SDS011;37900;52.996;6.278;2024-01-30T00:21:27;4.13;;;2.83;;
51862;SDS011;37900;52.996;6.278;2024-01-30T00:23:53;2.97;;;2.33;;
51862;SDS011;37900;52.996;6.278;2024-01-30T00:26:18;4.75;;;2.80;;
51862;SDS011;37900;52.996;6.278;2024-01-30T00:28:45;2.90;;;2.60;;
51862;SDS011;37900;52.996;6.278;2024-01-30T00:31:11;3.45;;;2.67;;
51862;SDS011;37900;52.996;6.278;2024-01-30T00:33:40;5.50;;;3.17;;
51862;SDS011;37900;52.996;6.278;2024-01-30T00:36:07;3.00;;;2.50;;
51862;SDS011;37900;52.996;6.278;2024-01-30T00:38:33;3.78;;;2.58;;
51862;SDS011;37900;52.996;6.278;2024-01-30T00:40:59;3.42;;;3.13;;
51862;SDS011;37900;52.996;6.278;2024-01-30T00:43:25;3.67;;;2.40;;
51862;SDS011;37900;52.996;6.278;2024-01-30T00:45:51;3.63;;;2.80;;
51862;SDS011;37900;52.996;6.278;2024-01-30T00:48:19;3.55;;;2.20;;
51862;SDS011;37900;52.996;6.278;2024-01-30T00:50:45;3.38;;;2.60;;
51862;SDS011;37900;52.996;6.278;2024-01-30T00:53:11;3.60;;;2.53;;
51862;SDS011;37900;52.996;6.278;2024-01-30T00:55:37;4.60;;;2.78;;
51862;SDS011;37900;52.996;6.278;2024-01-30T00:58:04;3.85;;;2.40;;
51862;SDS011;37900;52.996;6.278;2024-01-30T01:00:30;3.45;;;2.15;;
51862;SDS011;37900;52.996;6.278;2024-01-30T01:02:57;3.65;;;2.53;;
51862;SDS011;37900;52.996;6.278;2024-01-30T01:05:23;3.20;;;2.65;;
51862;SDS011;37900;52.996;6.278;2024-01-30T01:07:49;3.58;;;2.50;;
51862;SDS011;37900;52.996;6.278;2024-01-30T01:10:16;3.03;;;2.50;;
51862;SDS011;37900;52.996;6.278;2024-01-30T01:12:42;3.92;;;2.50;;
51862;SDS011;37900;52.996;6.278;2024-01-30T01:15:08;3.47;;;2.40;;
51862;SDS011;37900;52.996;6.278;2024-01-30T01:17:35;4.65;;;2.92;;
51862;SDS011;37900;52.996;6.278;2024-01-30T01:20:01;3.17;;;2.60;;
51862;SDS011;37900;52.996;6.278;2024-01-30T01:22:28;3.25;;;2.33;;
51862;SDS011;37900;52.996;6.278;2024-01-30T01:24:54;2.72;;;2.15;;
51862;SDS011;37900;52.996;6.278;2024-01-30T01:27:19;3.05;;;2.72;;
51862;SDS011;37900;52.996;6.278;2024-01-30T01:29:46;3.53;;;2.45;;
51862;SDS011;37900;52.996;6.278;2024-01-30T01:32:12;3.63;;;2.90;;
51862;SDS011;37900;52.996;6.278;2024-01-30T01:34:37;4.47;;;2.55;;
51862;SDS011;37900;52.996;6.278;2024-01-30T01:37:03;2.85;;;2.35;;
51862;SDS011;37900;52.996;6.278;2024-01-30T01:39:29;3.03;;;2.42;;
51862;SDS011;37900;52.996;6.278;2024-01-30T01:41:55;3.38;;;2.63;;
51862;SDS011;37900;52.996;6.278;2024-01-30T01:44:21;3.03;;;2.45;;
51862;SDS011;37900;52.996;6.278;2024-01-30T01:46:46;4.65;;;2.47;;
51862;SDS011;37900;52.996;6.278;2024-01-30T01:49:13;3.85;;;2.28;;
51862;SDS011;37900;52.996;6.278;2024-01-30T01:51:39;2.65;;;2.30;;
51862;SDS011;37900;52.996;6.278;2024-01-30T01:54:06;3.10;;;2.70;;
51862;SDS011;37900;52.996;6.278;2024-01-30T01:56:33;4.00;;;2.63;;
51862;SDS011;37900;52.996;6.278;2024-01-30T01:59:00;3.17;;;2.53;;
51862;SDS011;37900;52.996;6.278;2024-01-30T02:01:30;4.13;;;2.70;;
51862;SDS011;37900;52.996;6.278;2024-01-30T02:03:58;3.03;;;2.50;;
51862;SDS011;37900;52.996;6.278;2024-01-30T02:06:24;3.60;;;2.50;;
51862;SDS011;37900;52.996;6.278;2024-01-30T02:08:51;2.95;;;2.25;;
51862;SDS011;37900;52.996;6.278;2024-01-30T02:11:16;4.07;;;2.67;;
51862;SDS011;37900;52.996;6.278;2024-01-30T02:13:43;3.20;;;2.60;;
51862;SDS011;37900;52.996;6.278;2024-01-30T02:16:08;4.25;;;2.35;;
51862;SDS011;37900;52.996;6.278;2024-01-30T02:18:35;2.72;;;2.30;;
51862;SDS011;37900;52.996;6.278;2024-01-30T02:21:07;3.55;;;2.70;;
51862;SDS011;37900;52.996;6.278;2024-01-30T02:23:33;3.47;;;2.60;;
51862;SDS011;37900;52.996;6.278;2024-01-30T02:25:59;3.17;;;2.80;;
51862;SDS011;37900;52.996;6.278;2024-01-30T02:28:25;3.42;;;2.72;;
51862;SDS011;37900;52.996;6.278;2024-01-30T02:30:52;4.72;;;2.83;;
51862;SDS011;37900;52.996;6.278;2024-01-30T02:33:18;3.13;;;2.75;;
51862;SDS011;37900;52.996;6.278;2024-01-30T02:35:44;3.83;;;2.65;;
51862;SDS011;37900;52.996;6.278;2024-01-30T02:38:10;3.03;;;2.55;;
51862;SDS011;37900;52.996;6.278;2024-01-30T02:40:36;3.53;;;2.70;;
51862;SDS011;37900;52.996;6.278;2024-01-30T02:43:02;3.47;;;2.45;;
51862;SDS011;37900;52.996;6.278;2024-01-30T02:45:28;2.53;;;2.33;;
51862;SDS011;37900;52.996;6.278;2024-01-30T02:47:54;3.45;;;2.65;;
51862;SDS011;37900;52.996;6.278;2024-01-30T02:50:19;3.50;;;2.55;;
51862;SDS011;37900;52.996;6.278;2024-01-30T02:52:45;3.55;;;2.55;;
51862;SDS011;37900;52.996;6.278;2024-01-30T02:55:11;3.83;;;2.55;;
51862;SDS011;37900;52.996;6.278;2024-01-30T02:57:37;3.50;;;2.50;;
51862;SDS011;37900;52.996;6.278;2024-01-30T03:00:03;3.85;;;2.53;;
51862;SDS011;37900;52.996;6.278;2024-01-30T03:02:31;4.18;;;2.55;;
51862;SDS011;37900;52.996;6.278;2024-01-30T03:04:57;3.53;;;2.92;;
51862;SDS011;37900;52.996;6.278;2024-01-30T03:07:23;2.65;;;2.38;;
51862;SDS011;37900;52.996;6.278;2024-01-30T03:09:49;3.00;;;2.60;;
51862;SDS011;37900;52.996;6.278;2024-01-30T03:12:14;2.70;;;2.40;;
51862;SDS011;37900;52.996;6.278;2024-01-30T03:14:40;3.22;;;2.28;;
51862;SDS011;37900;52.996;6.278;2024-01-30T03:17:06;3.75;;;2.53;;
51862;SDS011;37900;52.996;6.278;2024-01-30T03:19:31;3.08;;;2.35;;
51862;SDS011;37900;52.996;6.278;2024-01-30T03:21:57;3.53;;;2.55;;
51862;SDS011;37900;52.996;6.278;2024-01-30T03:24:23;3.50;;;2.28;;
51862;SDS011;37900;52.996;6.278;2024-01-30T03:26:49;3.47;;;2.47;;
51862;SDS011;37900;52.996;6.278;2024-01-30T03:29:14;3.42;;;2.58;;
51862;SDS011;37900;52.996;6.278;2024-01-30T03:31:41;2.85;;;2.35;;
51862;SDS011;37900;52.996;6.278;2024-01-30T03:34:06;3.00;;;2.38;;
51862;SDS011;37900;52.996;6.278;2024-01-30T03:36:32;3.20;;;2.30;;
51862;SDS011;37900;52.996;6.278;2024-01-30T03:38:59;2.55;;;2.08;;
51862;SDS011;37900;52.996;6.278;2024-01-30T03:41:25;3.00;;;2.22;;
51862;SDS011;37900;52.996;6.278;2024-01-30T03:43:51;2.45;;;2.25;;
51862;SDS011;37900;52.996;6.278;2024-01-30T03:46:17;2.75;;;2.33;;
51862;SDS011;37900;52.996;6.278;2024-01-30T03:48:43;3.05;;;2.60;;
51862;SDS011;37900;52.996;6.278;2024-01-30T03:51:09;2.17;;;1.98;;
51862;SDS011;37900;52.996;6.278;2024-01-30T03:53:39;3.35;;;2.33;;
51862;SDS011;37900;52.996;6.278;2024-01-30T03:56:06;2.67;;;2.20;;
51862;SDS011;37900;52.996;6.278;2024-01-30T03:58:32;3.03;;;2.17;;
51862;SDS011;37900;52.996;6.278;2024-01-30T04:00:57;3.17;;;2.33;;
51862;SDS011;37900;52.996;6.278;2024-01-30T04:03:23;3.10;;;2.30;;
51862;SDS011;37900;52.996;6.278;2024-01-30T04:05:49;3.78;;;2.42;;
51862;SDS011;37900;52.996;6.278;2024-01-30T04:08:16;2.53;;;2.30;;
51862;SDS011;37900;52.996;6.278;2024-01-30T04:10:42;3.40;;;2.38;;
51862;SDS011;37900;52.996;6.278;2024-01-30T04:13:08;4.40;;;2.40;;
51862;SDS011;37900;52.996;6.278;2024-01-30T04:15:34;2.70;;;2.25;;
51862;SDS011;37900;52.996;6.278;2024-01-30T04:18:00;2.42;;;2.17;;
51862;SDS011;37900;52.996;6.278;2024-01-30T04:20:25;3.70;;;2.50;;
51862;SDS011;37900;52.996;6.278;2024-01-30T04:22:51;3.90;;;2.63;;
51862;SDS011;37900;52.996;6.278;2024-01-30T04:25:17;3.05;;;2.55;;
51862;SDS011;37900;52.996;6.278;2024-01-30T04:27:43;2.40;;;2.10;;
51862;SDS011;37900;52.996;6.278;2024-01-30T04:30:09;3.55;;;2.60;;
51862;SDS011;37900;52.996;6.278;2024-01-30T04:32:35;3.22;;;2.90;;
51862;SDS011;37900;52.996;6.278;2024-01-30T04:35:01;3.13;;;2.42;;
51862;SDS011;37900;52.996;6.278;2024-01-30T04:37:27;3.80;;;2.67;;
51862;SDS011;37900;52.996;6.278;2024-01-30T04:39:52;3.40;;;2.65;;
51862;SDS011;37900;52.996;6.278;2024-01-30T04:42:18;3.05;;;2.30;;
51862;SDS011;37900;52.996;6.278;2024-01-30T04:44:44;2.47;;;2.10;;
51862;SDS011;37900;52.996;6.278;2024-01-30T04:47:10;2.70;;;2.40;;
51862;SDS011;37900;52.996;6.278;2024-01-30T04:49:40;2.60;;;2.37;;
51862;SDS011;37900;52.996;6.278;2024-01-30T04:52:06;3.22;;;2.45;;
51862;SDS011;37900;52.996;6.278;2024-01-30T04:54:32;2.92;;;2.25;;
51862;SDS011;37900;52.996;6.278;2024-01-30T04:56:58;4.07;;;2.55;;
51862;SDS011;37900;52.996;6.278;2024-01-30T04:59:24;2.25;;;1.95;;
51862;SDS011;37900;52.996;6.278;2024-01-30T05:01:50;2.42;;;2.13;;
51862;SDS011;37900;52.996;6.278;2024-01-30T05:04:15;3.60;;;2.53;;
51862;SDS011;37900;52.996;6.278;2024-01-30T05:06:41;3.00;;;2.50;;
51862;SDS011;37900;52.996;6.278;2024-01-30T05:09:07;3.33;;;2.50;;
51862;SDS011;37900;52.996;6.278;2024-01-30T05:11:40;3.00;;;2.00;;
51862;SDS011;37900;52.996;6.278;2024-01-30T05:14:06;2.38;;;2.15;;
51862;SDS011;37900;52.996;6.278;2024-01-30T05:16:33;2.60;;;2.40;;
51862;SDS011;37900;52.996;6.278;2024-01-30T05:18:59;2.88;;;2.58;;
51862;SDS011;37900;52.996;6.278;2024-01-30T05:21:25;3.33;;;2.55;;
51862;SDS011;37900;52.996;6.278;2024-01-30T05:23:51;2.95;;;2.47;;
51862;SDS011;37900;52.996;6.278;2024-01-30T05:26:17;2.85;;;2.35;;
51862;SDS011;37900;52.996;6.278;2024-01-30T05:28:43;2.60;;;2.40;;
51862;SDS011;37900;52.996;6.278;2024-01-30T05:31:13;2.53;;;2.20;;
51862;SDS011;37900;52.996;6.278;2024-01-30T05:33:39;3.22;;;2.25;;
51862;SDS011;37900;52.996;6.278;2024-01-30T05:36:05;3.10;;;2.38;;
51862;SDS011;37900;52.996;6.278;2024-01-30T05:38:31;2.80;;;2.35;;
51862;SDS011;37900;52.996;6.278;2024-01-30T05:40:57;3.05;;;2.17;;
51862;SDS011;37900;52.996;6.278;2024-01-30T05:43:23;3.53;;;2.50;;
51862;SDS011;37900;52.996;6.278;2024-01-30T05:45:49;2.38;;;2.13;;
51862;SDS011;37900;52.996;6.278;2024-01-30T05:48:16;2.50;;;2.17;;
51862;SDS011;37900;52.996;6.278;2024-01-30T05:50:41;2.47;;;2.17;;
51862;SDS011;37900;52.996;6.278;2024-01-30T05:53:07;2.78;;;2.50;;
51862;SDS011;37900;52.996;6.278;2024-01-30T05:55:33;2.97;;;2.53;;
51862;SDS011;37900;52.996;6.278;2024-01-30T05:57:58;2.63;;;2.42;;
51862;SDS011;37900;52.996;6.278;2024-01-30T06:00:24;2.90;;;2.08;;
51862;SDS011;37900;52.996;6.278;2024-01-30T06:02:50;3.55;;;2.47;;
51862;SDS011;37900;52.996;6.278;2024-01-30T06:05:15;2.75;;;2.50;;
51862;SDS011;37900;52.996;6.278;2024-01-30T06:07:41;3.28;;;2.30;;
51862;SDS011;37900;52.996;6.278;2024-01-30T06:10:07;3.08;;;2.40;;
51862;SDS011;37900;52.996;6.278;2024-01-30T06:12:34;2.67;;;2.20;;
51862;SDS011;37900;52.996;6.278;2024-01-30T06:15:00;2.57;;;2.20;;
51862;SDS011;37900;52.996;6.278;2024-01-30T06:17:26;3.70;;;2.38;;
51862;SDS011;37900;52.996;6.278;2024-01-30T06:19:53;3.28;;;2.30;;
51862;SDS011;37900;52.996;6.278;2024-01-30T06:22:19;2.65;;;2.25;;
51862;SDS011;37900;52.996;6.278;2024-01-30T06:24:45;2.80;;;2.10;;
51862;SDS011;37900;52.996;6.278;2024-01-30T06:27:13;3.35;;;2.22;;
51862;SDS011;37900;52.996;6.278;2024-01-30T06:29:39;3.13;;;2.28;;
51862;SDS011;37900;52.996;6.278;2024-01-30T06:32:05;2.85;;;2.35;;
51862;SDS011;37900;52.996;6.278;2024-01-30T06:34:31;2.72;;;2.15;;
51862;SDS011;37900;52.996;6.278;2024-01-30T06:36:57;2.33;;;2.05;;
51862;SDS011;37900;52.996;6.278;2024-01-30T06:39:23;2.40;;;2.20;;
51862;SDS011;37900;52.996;6.278;2024-01-30T06:41:48;2.42;;;2.22;;
51862;SDS011;37900;52.996;6.278;2024-01-30T06:44:14;2.40;;;2.08;;
51862;SDS011;37900;52.996;6.278;2024-01-30T06:46:40;3.25;;;2.50;;
51862;SDS011;37900;52.996;6.278;2024-01-30T06:49:06;3.05;;;2.53;;
51862;SDS011;37900;52.996;6.278;2024-01-30T06:51:31;3.10;;;2.55;;
51862;SDS011;37900;52.996;6.278;2024-01-30T06:53:57;5.75;;;4.10;;
51862;SDS011;37900;52.996;6.278;2024-01-30T06:56:23;4.22;;;3.83;;
51862;SDS011;37900;52.996;6.278;2024-01-30T06:58:52;4.72;;;3.45;;
51862;SDS011;37900;52.996;6.278;2024-01-30T07:01:18;3.80;;;3.28;;
51862;SDS011;37900;52.996;6.278;2024-01-30T07:03:44;4.43;;;3.17;;
51862;SDS011;37900;52.996;6.278;2024-01-30T07:06:09;4.80;;;3.25;;
51862;SDS011;37900;52.996;6.278;2024-01-30T07:08:38;3.90;;;3.10;;
51862;SDS011;37900;52.996;6.278;2024-01-30T07:11:06;3.20;;;2.85;;
51862;SDS011;37900;52.996;6.278;2024-01-30T07:13:33;4.90;;;2.65;;
51862;SDS011;37900;52.996;6.278;2024-01-30T07:15:59;9.38;;;5.30;;
51862;SDS011;37900;52.996;6.278;2024-01-30T07:18:25;5.97;;;4.80;;
51862;SDS011;37900;52.996;6.278;2024-01-30T07:20:51;7.13;;;4.72;;
51862;SDS011;37900;52.996;6.278;2024-01-30T07:23:17;7.28;;;4.35;;
51862;SDS011;37900;52.996;6.278;2024-01-30T07:25:43;7.80;;;4.47;;
51862;SDS011;37900;52.996;6.278;2024-01-30T07:28:10;7.93;;;4.75;;
51862;SDS011;37900;52.996;6.278;2024-01-30T07:30:37;6.47;;;3.72;;
51862;SDS011;37900;52.996;6.278;2024-01-30T07:33:05;8.80;;;4.22;;
51862;SDS011;37900;52.996;6.278;2024-01-30T07:35:31;5.60;;;3.85;;
51862;SDS011;37900;52.996;6.278;2024-01-30T07:37:56;6.25;;;4.00;;
51862;SDS011;37900;52.996;6.278;2024-01-30T07:40:22;7.95;;;4.00;;
51862;SDS011;37900;52.996;6.278;2024-01-30T07:42:49;6.53;;;3.22;;
51862;SDS011;37900;52.996;6.278;2024-01-30T07:45:15;6.85;;;4.20;;
51862;SDS011;37900;52.996;6.278;2024-01-30T07:47:41;8.70;;;4.25;;
51862;SDS011;37900;52.996;6.278;2024-01-30T07:50:07;8.80;;;3.92;;
51862;SDS011;37900;52.996;6.278;2024-01-30T07:52:34;8.30;;;4.05;;
51862;SDS011;37900;52.996;6.278;2024-01-30T07:55:00;6.65;;;3.95;;
51862;SDS011;37900;52.996;6.278;2024-01-30T07:57:25;4.78;;;3.40;;
51862;SDS011;37900;52.996;6.278;2024-01-30T07:59:51;5.35;;;4.07;;
51862;SDS011;37900;52.996;6.278;2024-01-30T08:02:17;4.85;;;3.58;;
51862;SDS011;37900;52.996;6.278;2024-01-30T08:04:42;5.55;;;3.60;;
51862;SDS011;37900;52.996;6.278;2024-01-30T08:07:08;5.15;;;3.67;;
51862;SDS011;37900;52.996;6.278;2024-01-30T08:09:34;7.18;;;3.90;;
51862;SDS011;37900;52.996;6.278;2024-01-30T08:12:00;6.80;;;3.70;;
51862;SDS011;37900;52.996;6.278;2024-01-30T08:14:25;3.92;;;3.10;;
51862;SDS011;37900;52.996;6.278;2024-01-30T08:16:51;4.80;;;3.83;;
51862;SDS011;37900;52.996;6.278;2024-01-30T08:19:17;6.40;;;3.30;;
51862;SDS011;37900;52.996;6.278;2024-01-30T08:21:44;5.70;;;3.28;;
51862;SDS011;37900;52.996;6.278;2024-01-30T08:24:09;7.35;;;4.03;;
51862;SDS011;37900;52.996;6.278;2024-01-30T08:26:35;5.53;;;3.30;;
51862;SDS011;37900;52.996;6.278;2024-01-30T08:29:01;5.97;;;3.53;;
51862;SDS011;37900;52.996;6.278;2024-01-30T08:31:27;4.18;;;3.40;;
51862;SDS011;37900;52.996;6.278;2024-01-30T08:33:53;5.30;;;3.42;;
51862;SDS011;37900;52.996;6.278;2024-01-30T08:36:20;4.10;;;3.28;;
51862;SDS011;37900;52.996;6.278;2024-01-30T08:41:12;4.15;;;3.17;;
51862;SDS011;37900;52.996;6.278;2024-01-30T08:43:37;4.05;;;2.90;;
51862;SDS011;37900;52.996;6.278;2024-01-30T08:46:03;3.35;;;2.90;;
51862;SDS011;37900;52.996;6.278;2024-01-30T08:48:29;4.75;;;3.83;;
51862;SDS011;37900;52.996;6.278;2024-01-30T08:50:54;6.38;;;3.13;;
51862;SDS011;37900;52.996;6.278;2024-01-30T08:53:20;3.92;;;3.10;;
51862;SDS011;37900;52.996;6.278;2024-01-30T08:55:46;4.30;;;3.03;;
51862;SDS011;37900;52.996;6.278;2024-01-30T08:58:12;4.78;;;3.42;;
51862;SDS011;37900;52.996;6.278;2024-01-30T09:00:38;5.10;;;3.00;;
51862;SDS011;37900;52.996;6.278;2024-01-30T09:03:04;3.50;;;3.05;;
51862;SDS011;37900;52.996;6.278;2024-01-30T09:05:29;5.05;;;3.17;;
51862;SDS011;37900;52.996;6.278;2024-01-30T09:07:55;6.25;;;3.20;;
51862;SDS011;37900;52.996;6.278;2024-01-30T09:10:21;3.67;;;3.30;;
51862;SDS011;37900;52.996;6.278;2024-01-30T09:12:47;4.35;;;3.33;;
51862;SDS011;37900;52.996;6.278;2024-01-30T09:15:13;4.35;;;2.80;;
51862;SDS011;37900;52.996;6.278;2024-01-30T09:17:39;4.10;;;2.90;;
51862;SDS011;37900;52.996;6.278;2024-01-30T09:20:05;5.07;;;3.40;;
51862;SDS011;37900;52.996;6.278;2024-01-30T09:22:31;4.15;;;3.58;;
51862;SDS011;37900;52.996;6.278;2024-01-30T09:24:57;3.50;;;2.90;;
51862;SDS011;37900;52.996;6.278;2024-01-30T09:27:23;4.30;;;2.90;;
51862;SDS011;37900;52.996;6.278;2024-01-30T09:29:49;5.00;;;3.25;;
51862;SDS011;37900;52.996;6.278;2024-01-30T09:32:15;3.97;;;3.03;;
51862;SDS011;37900;52.996;6.278;2024-01-30T09:34:42;6.13;;;3.40;;
51862;SDS011;37900;52.996;6.278;2024-01-30T09:37:08;4.45;;;3.13;;
51862;SDS011;37900;52.996;6.278;2024-01-30T09:39:34;4.32;;;3.17;;
51862;SDS011;37900;52.996;6.278;2024-01-30T09:44:28;6.30;;;2.80;;
51862;SDS011;37900;52.996;6.278;2024-01-30T09:46:55;6.53;;;3.92;;
51862;SDS011;37900;52.996;6.278;2024-01-30T09:49:23;3.83;;;2.80;;
51862;SDS011;37900;52.996;6.278;2024-01-30T09:51:51;5.25;;;2.90;;
51862;SDS011;37900;52.996;6.278;2024-01-30T09:54:18;4.47;;;3.25;;
51862;SDS011;37900;52.996;6.278;2024-01-30T09:56:44;4.33;;;3.10;;
51862;SDS011;37900;52.996;6.278;2024-01-30T09:59:10;4.10;;;3.00;;
51862;SDS011;37900;52.996;6.278;2024-01-30T10:01:36;3.70;;;2.80;;
51862;SDS011;37900;52.996;6.278;2024-01-30T10:04:02;4.32;;;2.70;;
51862;SDS011;37900;52.996;6.278;2024-01-30T10:06:30;4.45;;;2.40;;
51862;SDS011;37900;52.996;6.278;2024-01-30T10:08:55;3.35;;;2.67;;
51862;SDS011;37900;52.996;6.278;2024-01-30T10:11:21;3.95;;;2.65;;
51862;SDS011;37900;52.996;6.278;2024-01-30T10:13:47;4.18;;;2.85;;
51862;SDS011;37900;52.996;6.278;2024-01-30T10:16:15;3.63;;;2.88;;
51862;SDS011;37900;52.996;6.278;2024-01-30T10:18:42;3.80;;;2.50;;
51862;SDS011;37900;52.996;6.278;2024-01-30T10:21:08;3.25;;;2.55;;
51862;SDS011;37900;52.996;6.278;2024-01-30T10:23:35;3.25;;;2.80;;
51862;SDS011;37900;52.996;6.278;2024-01-30T10:26:05;2.95;;;2.65;;
51862;SDS011;37900;52.996;6.278;2024-01-30T10:28:32;3.83;;;2.75;;
51862;SDS011;37900;52.996;6.278;2024-01-30T10:30:59;7.22;;;3.15;;
51862;SDS011;37900;52.996;6.278;2024-01-30T10:33:28;7.20;;;3.10;;
51862;SDS011;37900;52.996;6.278;2024-01-30T10:35:55;12.95;;;3.60;;
51862;SDS011;37900;52.996;6.278;2024-01-30T10:38:28;11.77;;;3.20;;
51862;SDS011;37900;52.996;6.278;2024-01-30T10:40:59;9.48;;;3.95;;
51862;SDS011;37900;52.996;6.278;2024-01-30T10:43:32;5.97;;;3.10;;
51862;SDS011;37900;52.996;6.278;2024-01-30T10:46:28;5.75;;;2.70;;
51862;SDS011;37900;52.996;6.278;2024-01-30T10:48:58;4.53;;;2.95;;
51862;SDS011;37900;52.996;6.278;2024-01-30T10:51:26;5.10;;;2.90;;
51862;SDS011;37900;52.996;6.278;2024-01-30T10:53:52;6.07;;;2.80;;
51862;SDS011;37900;52.996;6.278;2024-01-30T10:56:21;5.40;;;2.50;;
51862;SDS011;37900;52.996;6.278;2024-01-30T10:58:49;7.10;;;3.40;;
51862;SDS011;37900;52.996;6.278;2024-01-30T11:01:17;4.03;;;3.00;;
51862;SDS011;37900;52.996;6.278;2024-01-30T11:03:52;4.65;;;3.33;;
51862;SDS011;37900;52.996;6.278;2024-01-30T11:06:22;5.50;;;3.40;;
51862;SDS011;37900;52.996;6.278;2024-01-30T11:09:11;6.70;;;3.22;;
51862;SDS011;37900;52.996;6.278;2024-01-30T11:11:50;9.52;;;3.33;;
51862;SDS011;37900;52.996;6.278;2024-01-30T11:14:16;8.68;;;3.05;;
51862;SDS011;37900;52.996;6.278;2024-01-30T11:16:49;5.43;;;3.30;;
51862;SDS011;37900;52.996;6.278;2024-01-30T11:19:14;5.70;;;3.42;;
51862;SDS011;37900;52.996;6.278;2024-01-30T11:21:43;5.15;;;2.97;;
51862;SDS011;37900;52.996;6.278;2024-01-30T11:24:09;6.88;;;3.50;;
51862;SDS011;37900;52.996;6.278;2024-01-30T11:26:35;5.32;;;3.20;;
51862;SDS011;37900;52.996;6.278;2024-01-30T11:29:03;8.48;;;3.40;;
51862;SDS011;37900;52.996;6.278;2024-01-30T11:31:32;7.32;;;2.85;;
51862;SDS011;37900;52.996;6.278;2024-01-30T11:33:58;4.30;;;3.10;;
51862;SDS011;37900;52.996;6.278;2024-01-30T11:36:25;5.18;;;3.05;;
51862;SDS011;37900;52.996;6.278;2024-01-30T11:38:54;6.35;;;2.85;;
51862;SDS011;37900;52.996;6.278;2024-01-30T11:41:20;6.13;;;3.88;;
51862;SDS011;37900;52.996;6.278;2024-01-30T11:43:53;5.35;;;3.10;;
51862;SDS011;37900;52.996;6.278;2024-01-30T11:46:19;5.45;;;2.92;;
51862;SDS011;37900;52.996;6.278;2024-01-30T11:48:45;5.93;;;3.00;;
51862;SDS011;37900;52.996;6.278;2024-01-30T11:51:12;4.47;;;2.50;;
51862;SDS011;37900;52.996;6.278;2024-01-30T11:53:38;5.15;;;3.25;;
51862;SDS011;37900;52.996;6.278;2024-01-30T11:56:06;4.22;;;2.58;;
51862;SDS011;37900;52.996;6.278;2024-01-30T12:00:57;5.00;;;2.83;;
51862;SDS011;37900;52.996;6.278;2024-01-30T12:03:24;5.18;;;2.90;;
51862;SDS011;37900;52.996;6.278;2024-01-30T12:05:57;4.40;;;2.83;;
51862;SDS011;37900;52.996;6.278;2024-01-30T12:08:25;5.15;;;2.70;;
51862;SDS011;37900;52.996;6.278;2024-01-30T12:10:58;5.88;;;2.92;;
51862;SDS011;37900;52.996;6.278;2024-01-30T12:13:26;5.20;;;2.50;;
51862;SDS011;37900;52.996;6.278;2024-01-30T12:15:53;4.20;;;2.60;;
51862;SDS011;37900;52.996;6.278;2024-01-30T12:18:19;2.97;;;2.22;;
51862;SDS011;37900;52.996;6.278;2024-01-30T12:20:45;5.07;;;2.72;;
51862;SDS011;37900;52.996;6.278;2024-01-30T12:23:11;4.95;;;2.72;;
51862;SDS011;37900;52.996;6.278;2024-01-30T12:25:37;3.17;;;2.63;;
51862;SDS011;37900;52.996;6.278;2024-01-30T12:28:03;4.43;;;2.80;;
51862;SDS011;37900;52.996;6.278;2024-01-30T12:30:29;4.68;;;2.50;;
51862;SDS011;37900;52.996;6.278;2024-01-30T12:32:55;3.90;;;2.42;;
51862;SDS011;37900;52.996;6.278;2024-01-30T12:35:20;3.22;;;2.33;;
51862;SDS011;37900;52.996;6.278;2024-01-30T12:40:14;2.45;;;2.00;;
51862;SDS011;37900;52.996;6.278;2024-01-30T12:42:41;3.38;;;2.20;;
51862;SDS011;37900;52.996;6.278;2024-01-30T12:45:08;5.78;;;2.75;;
51862;SDS011;37900;52.996;6.278;2024-01-30T12:47:34;4.90;;;2.33;;
51862;SDS011;37900;52.996;6.278;2024-01-30T12:50:00;4.20;;;2.55;;
51862;SDS011;37900;52.996;6.278;2024-01-30T12:52:26;3.53;;;2.50;;
51862;SDS011;37900;52.996;6.278;2024-01-30T12:54:52;4.10;;;2.40;;
51862;SDS011;37900;52.996;6.278;2024-01-30T12:57:18;3.45;;;2.40;;
51862;SDS011;37900;52.996;6.278;2024-01-30T12:59:44;4.00;;;2.20;;
51862;SDS011;37900;52.996;6.278;2024-01-30T13:02:11;4.95;;;2.38;;
51862;SDS011;37900;52.996;6.278;2024-01-30T13:07:03;3.30;;;2.45;;
51862;SDS011;37900;52.996;6.278;2024-01-30T13:09:29;2.95;;;2.05;;
51862;SDS011;37900;52.996;6.278;2024-01-30T13:11:56;4.68;;;2.65;;
51862;SDS011;37900;52.996;6.278;2024-01-30T13:14:22;4.03;;;2.45;;
51862;SDS011;37900;52.996;6.278;2024-01-30T13:16:47;3.63;;;2.28;;
51862;SDS011;37900;52.996;6.278;2024-01-30T13:19:13;2.38;;;1.83;;
51862;SDS011;37900;52.996;6.278;2024-01-30T13:21:39;3.70;;;2.13;;
51862;SDS011;37900;52.996;6.278;2024-01-30T13:24:05;3.95;;;2.30;;
51862;SDS011;37900;52.996;6.278;2024-01-30T13:26:34;3.03;;;2.30;;
51862;SDS011;37900;52.996;6.278;2024-01-30T13:29:00;3.17;;;2.40;;
51862;SDS011;37900;52.996;6.278;2024-01-30T13:31:25;3.05;;;2.35;;
51862;SDS011;37900;52.996;6.278;2024-01-30T13:33:52;5.13;;;2.27;;
51862;SDS011;37900;52.996;6.278;2024-01-30T13:36:18;3.42;;;2.10;;
51862;SDS011;37900;52.996;6.278;2024-01-30T13:38:44;3.75;;;2.10;;
51862;SDS011;37900;52.996;6.278;2024-01-30T13:41:10;3.72;;;2.45;;
51862;SDS011;37900;52.996;6.278;2024-01-30T13:43:36;4.40;;;2.53;;
51862;SDS011;37900;52.996;6.278;2024-01-30T13:46:01;2.90;;;2.35;;
51862;SDS011;37900;52.996;6.278;2024-01-30T13:48:28;4.13;;;2.05;;
51862;SDS011;37900;52.996;6.278;2024-01-30T13:50:54;2.80;;;2.17;;
51862;SDS011;37900;52.996;6.278;2024-01-30T13:53:20;3.33;;;2.30;;
51862;SDS011;37900;52.996;6.278;2024-01-30T13:55:46;2.78;;;1.95;;
51862;SDS011;37900;52.996;6.278;2024-01-30T13:58:12;2.78;;;2.10;;
51862;SDS011;37900;52.996;6.278;2024-01-30T14:00:38;4.50;;;2.00;;
51862;SDS011;37900;52.996;6.278;2024-01-30T14:03:03;3.35;;;1.88;;
51862;SDS011;37900;52.996;6.278;2024-01-30T14:05:29;2.13;;;1.73;;
51862;SDS011;37900;52.996;6.278;2024-01-30T14:07:56;2.72;;;2.13;;
51862;SDS011;37900;52.996;6.278;2024-01-30T14:12:49;2.97;;;2.20;;
51862;SDS011;37900;52.996;6.278;2024-01-30T14:15:14;3.28;;;2.42;;
51862;SDS011;37900;52.996;6.278;2024-01-30T14:17:43;2.88;;;2.03;;
51862;SDS011;37900;52.996;6.278;2024-01-30T14:20:10;2.15;;;1.92;;
51862;SDS011;37900;52.996;6.278;2024-01-30T14:22:36;2.55;;;1.75;;
51862;SDS011;37900;52.996;6.278;2024-01-30T14:25:02;3.15;;;2.00;;
51862;SDS011;37900;52.996;6.278;2024-01-30T14:27:29;1.90;;;1.70;;
51862;SDS011;37900;52.996;6.278;2024-01-30T14:29:56;2.50;;;1.98;;
51862;SDS011;37900;52.996;6.278;2024-01-30T14:32:23;2.47;;;1.48;;
51862;SDS011;37900;52.996;6.278;2024-01-30T14:34:50;2.63;;;1.65;;
51862;SDS011;37900;52.996;6.278;2024-01-30T14:37:16;2.63;;;1.80;;
51862;SDS011;37900;52.996;6.278;2024-01-30T14:39:41;2.88;;;1.90;;
51862;SDS011;37900;52.996;6.278;2024-01-30T14:42:07;2.75;;;1.75;;
51862;SDS011;37900;52.996;6.278;2024-01-30T14:44:33;3.47;;;2.15;;
51862;SDS011;37900;52.996;6.278;2024-01-30T14:47:01;2.55;;;1.80;;
51862;SDS011;37900;52.996;6.278;2024-01-30T14:49:27;3.17;;;1.50;;
51862;SDS011;37900;52.996;6.278;2024-01-30T14:51:53;2.90;;;1.50;;
51862;SDS011;37900;52.996;6.278;2024-01-30T14:54:19;2.47;;;1.67;;
51862;SDS011;37900;52.996;6.278;2024-01-30T14:56:44;3.88;;;1.75;;
51862;SDS011;37900;52.996;6.278;2024-01-30T14:59:11;2.08;;;1.77;;